sensor_id;sensor_type;location;lat;lon;timestamp;P1;durP1;ratioP1;P2;durP2;ratioP2
19944;SDS011;10134;50.952;6.930;2023-03-01T00:01:38;9.17;;;5.63;;
19944;SDS011;10134;50.952;6.930;2023-03-01T00:04:06;9.20;;;5.50;;
19944;SDS011;10134;50.952;6.930;2023-03-01T00:06:33;8.53;;;6.23;;
19944;SDS011;10134;50.952;6.930;2023-03-01T00:09:00;11.70;;;5.93;;
19944;SDS011;10134;50.952;6.930;2023-03-01T00:11:29;11.80;;;5.87;;
19944;SDS011;10134;50.952;6.930;2023-03-01T00:13:58;10.00;;;6.03;;
19944;SDS011;10134;50.952;6.930;2023-03-01T00:16:29;9.07;;;5.97;;
19944;SDS011;10134;50.952;6.930;2023-03-01T00:19:00;7.63;;;5.13;;
19944;SDS011;10134;50.952;6.930;2023-03-01T00:21:28;9.63;;;5.33;;
19944;SDS011;10134;50.952;6.930;2023-03-01T00:23:55;6.10;;;4.63;;
19944;SDS011;10134;50.952;6.930;2023-03-01T00:26:24;8.63;;;4.93;;
19944;SDS011;10134;50.952;6.930;2023-03-01T00:28:52;7.97;;;5.53;;
19944;SDS011;10134;50.952;6.930;2023-03-01T00:31:23;8.10;;;5.43;;
19944;SDS011;10134;50.952;6.930;2023-03-01T00:33:52;12.67;;;5.87;;
19944;SDS011;10134;50.952;6.930;2023-03-01T00:36:24;14.60;;;6.37;;
19944;SDS011;10134;50.952;6.930;2023-03-01T00:38:53;8.13;;;6.20;;
19944;SDS011;10134;50.952;6.930;2023-03-01T00:41:21;9.20;;;5.53;;
19944;SDS011;10134;50.952;6.930;2023-03-01T00:43:49;10.87;;;6.13;;
19944;SDS011;10134;50.952;6.930;2023-03-01T00:46:18;9.33;;;5.53;;
19944;SDS011;10134;50.952;6.930;2023-03-01T00:48:48;8.87;;;6.03;;
19944;SDS011;10134;50.952;6.930;2023-03-01T00:51:16;9.37;;;6.47;;
19944;SDS011;10134;50.952;6.930;2023-03-01T00:53:46;7.23;;;4.37;;
19944;SDS011;10134;50.952;6.930;2023-03-01T00:56:16;8.27;;;5.70;;
19944;SDS011;10134;50.952;6.930;2023-03-01T00:58:45;9.13;;;6.00;;
19944;SDS011;10134;50.952;6.930;2023-03-01T01:01:13;8.47;;;5.77;;
19944;SDS011;10134;50.952;6.930;2023-03-01T01:03:50;7.63;;;5.70;;
19944;SDS011;10134;50.952;6.930;2023-03-01T01:06:23;9.47;;;5.83;;
19944;SDS011;10134;50.952;6.930;2023-03-01T01:09:03;8.40;;;6.03;;
19944;SDS011;10134;50.952;6.930;2023-03-01T01:11:32;9.40;;;6.30;;
19944;SDS011;10134;50.952;6.930;2023-03-01T01:13:59;9.07;;;5.63;;
19944;SDS011;10134;50.952;6.930;2023-03-01T01:16:28;11.20;;;6.27;;
19944;SDS011;10134;50.952;6.930;2023-03-01T01:18:56;12.23;;;6.90;;
19944;SDS011;10134;50.952;6.930;2023-03-01T01:21:24;10.63;;;7.23;;
19944;SDS011;10134;50.952;6.930;2023-03-01T01:23:52;9.37;;;6.03;;
19944;SDS011;10134;50.952;6.930;2023-03-01T01:26:21;12.13;;;6.50;;
19944;SDS011;10134;50.952;6.930;2023-03-01T01:28:50;12.83;;;7.00;;
19944;SDS011;10134;50.952;6.930;2023-03-01T01:31:18;11.00;;;6.33;;
19944;SDS011;10134;50.952;6.930;2023-03-01T01:33:46;8.70;;;5.50;;
19944;SDS011;10134;50.952;6.930;2023-03-01T01:36:13;10.50;;;6.10;;
19944;SDS011;10134;50.952;6.930;2023-03-01T01:38:40;8.63;;;5.50;;
19944;SDS011;10134;50.952;6.930;2023-03-01T01:41:09;11.40;;;6.10;;
19944;SDS011;10134;50.952;6.930;2023-03-01T01:43:49;11.30;;;6.77;;
19944;SDS011;10134;50.952;6.930;2023-03-01T01:46:37;12.93;;;6.73;;
19944;SDS011;10134;50.952;6.930;2023-03-01T01:49:19;11.23;;;6.93;;
19944;SDS011;10134;50.952;6.930;2023-03-01T01:51:58;18.17;;;7.67;;
19944;SDS011;10134;50.952;6.930;2023-03-01T01:54:37;15.17;;;8.70;;
19944;SDS011;10134;50.952;6.930;2023-03-01T01:57:28;22.13;;;8.80;;
19944;SDS011;10134;50.952;6.930;2023-03-01T02:00:02;18.67;;;9.07;;
19944;SDS011;10134;50.952;6.930;2023-03-01T02:02:42;21.87;;;8.70;;
19944;SDS011;10134;50.952;6.930;2023-03-01T02:05:17;16.87;;;7.20;;
19944;SDS011;10134;50.952;6.930;2023-03-01T02:07:59;14.07;;;7.43;;
19944;SDS011;10134;50.952;6.930;2023-03-01T02:10:26;11.93;;;6.13;;
19944;SDS011;10134;50.952;6.930;2023-03-01T02:12:55;9.97;;;6.80;;
19944;SDS011;10134;50.952;6.930;2023-03-01T02:15:23;9.17;;;6.47;;
19944;SDS011;10134;50.952;6.930;2023-03-01T02:17:51;12.17;;;7.00;;
19944;SDS011;10134;50.952;6.930;2023-03-01T02:20:25;12.23;;;7.47;;
19944;SDS011;10134;50.952;6.930;2023-03-01T02:22:58;9.77;;;6.03;;
19944;SDS011;10134;50.952;6.930;2023-03-01T02:28:25;11.17;;;6.50;;
19944;SDS011;10134;50.952;6.930;2023-03-01T02:30:57;11.40;;;6.10;;
19944;SDS011;10134;50.952;6.930;2023-03-01T02:33:43;10.70;;;6.70;;
19944;SDS011;10134;50.952;6.930;2023-03-01T02:36:14;8.93;;;6.03;;
19944;SDS011;10134;50.952;6.930;2023-03-01T02:38:46;9.23;;;6.43;;
19944;SDS011;10134;50.952;6.930;2023-03-01T02:41:16;14.43;;;6.43;;
19944;SDS011;10134;50.952;6.930;2023-03-01T02:43:46;8.53;;;5.67;;
19944;SDS011;10134;50.952;6.930;2023-03-01T02:46:15;9.07;;;6.17;;
19944;SDS011;10134;50.952;6.930;2023-03-01T02:48:50;11.20;;;6.37;;
19944;SDS011;10134;50.952;6.930;2023-03-01T02:51:26;7.13;;;5.43;;
19944;SDS011;10134;50.952;6.930;2023-03-01T02:57:03;10.37;;;6.10;;
19944;SDS011;10134;50.952;6.930;2023-03-01T02:59:31;8.23;;;6.13;;
19944;SDS011;10134;50.952;6.930;2023-03-01T03:02:08;11.77;;;6.63;;
19944;SDS011;10134;50.952;6.930;2023-03-01T03:04:47;10.63;;;6.50;;
19944;SDS011;10134;50.952;6.930;2023-03-01T03:07:14;7.87;;;6.30;;
19944;SDS011;10134;50.952;6.930;2023-03-01T03:09:43;8.40;;;6.23;;
19944;SDS011;10134;50.952;6.930;2023-03-01T03:12:11;7.90;;;6.00;;
19944;SDS011;10134;50.952;6.930;2023-03-01T03:14:38;10.87;;;5.97;;
19944;SDS011;10134;50.952;6.930;2023-03-01T03:17:06;10.77;;;6.13;;
19944;SDS011;10134;50.952;6.930;2023-03-01T03:19:33;9.77;;;6.17;;
19944;SDS011;10134;50.952;6.930;2023-03-01T03:22:00;10.83;;;6.03;;
19944;SDS011;10134;50.952;6.930;2023-03-01T03:24:28;10.10;;;6.30;;
19944;SDS011;10134;50.952;6.930;2023-03-01T03:27:04;11.47;;;6.57;;
19944;SDS011;10134;50.952;6.930;2023-03-01T03:29:32;8.67;;;5.53;;
19944;SDS011;10134;50.952;6.930;2023-03-01T03:32:00;9.33;;;6.43;;
19944;SDS011;10134;50.952;6.930;2023-03-01T03:34:27;11.13;;;6.53;;
19944;SDS011;10134;50.952;6.930;2023-03-01T03:36:54;9.90;;;6.53;;
19944;SDS011;10134;50.952;6.930;2023-03-01T03:39:23;9.93;;;5.97;;
19944;SDS011;10134;50.952;6.930;2023-03-01T03:41:50;11.40;;;6.47;;
19944;SDS011;10134;50.952;6.930;2023-03-01T03:44:18;7.93;;;5.57;;
19944;SDS011;10134;50.952;6.930;2023-03-01T03:46:45;13.73;;;6.83;;
19944;SDS011;10134;50.952;6.930;2023-03-01T03:49:12;9.40;;;6.17;;
19944;SDS011;10134;50.952;6.930;2023-03-01T03:51:39;11.77;;;6.20;;
19944;SDS011;10134;50.952;6.930;2023-03-01T03:54:06;13.97;;;7.00;;
19944;SDS011;10134;50.952;6.930;2023-03-01T03:56:34;10.07;;;6.77;;
19944;SDS011;10134;50.952;6.930;2023-03-01T03:59:01;11.37;;;6.77;;
19944;SDS011;10134;50.952;6.930;2023-03-01T04:01:28;9.10;;;6.20;;
19944;SDS011;10134;50.952;6.930;2023-03-01T04:03:56;12.17;;;6.53;;
19944;SDS011;10134;50.952;6.930;2023-03-01T04:06:31;8.63;;;6.60;;
19944;SDS011;10134;50.952;6.930;2023-03-01T04:08:58;10.30;;;6.60;;
19944;SDS011;10134;50.952;6.930;2023-03-01T04:11:28;10.77;;;7.00;;
19944;SDS011;10134;50.952;6.930;2023-03-01T04:13:56;12.73;;;7.67;;
19944;SDS011;10134;50.952;6.930;2023-03-01T04:16:25;13.40;;;7.43;;
19944;SDS011;10134;50.952;6.930;2023-03-01T04:18:52;11.57;;;7.00;;
19944;SDS011;10134;50.952;6.930;2023-03-01T04:21:20;9.33;;;7.27;;
19944;SDS011;10134;50.952;6.930;2023-03-01T04:23:48;12.20;;;7.63;;
19944;SDS011;10134;50.952;6.930;2023-03-01T04:26:19;12.50;;;6.87;;
19944;SDS011;10134;50.952;6.930;2023-03-01T04:28:47;13.60;;;7.80;;
19944;SDS011;10134;50.952;6.930;2023-03-01T04:31:16;12.97;;;6.67;;
19944;SDS011;10134;50.952;6.930;2023-03-01T04:33:51;11.87;;;7.77;;
19944;SDS011;10134;50.952;6.930;2023-03-01T04:36:21;11.60;;;7.07;;
19944;SDS011;10134;50.952;6.930;2023-03-01T04:38:51;10.07;;;6.70;;
19944;SDS011;10134;50.952;6.930;2023-03-01T04:41:19;15.97;;;7.83;;
19944;SDS011;10134;50.952;6.930;2023-03-01T04:43:48;12.90;;;8.20;;
19944;SDS011;10134;50.952;6.930;2023-03-01T04:46:17;11.93;;;7.10;;
19944;SDS011;10134;50.952;6.930;2023-03-01T04:48:46;12.07;;;8.60;;
19944;SDS011;10134;50.952;6.930;2023-03-01T04:51:15;13.57;;;7.87;;
19944;SDS011;10134;50.952;6.930;2023-03-01T04:53:42;15.77;;;8.07;;
19944;SDS011;10134;50.952;6.930;2023-03-01T04:56:11;12.33;;;7.53;;
19944;SDS011;10134;50.952;6.930;2023-03-01T04:58:40;11.83;;;7.10;;
19944;SDS011;10134;50.952;6.930;2023-03-01T05:01:12;11.93;;;7.13;;
19944;SDS011;10134;50.952;6.930;2023-03-01T05:03:45;13.50;;;7.90;;
19944;SDS011;10134;50.952;6.930;2023-03-01T05:08:47;14.60;;;8.17;;
19944;SDS011;10134;50.952;6.930;2023-03-01T05:11:14;11.27;;;7.60;;
19944;SDS011;10134;50.952;6.930;2023-03-01T05:13:41;14.13;;;8.50;;
19944;SDS011;10134;50.952;6.930;2023-03-01T05:16:09;15.87;;;8.33;;
19944;SDS011;10134;50.952;6.930;2023-03-01T05:18:38;14.53;;;7.63;;
19944;SDS011;10134;50.952;6.930;2023-03-01T05:21:11;16.00;;;8.90;;
19944;SDS011;10134;50.952;6.930;2023-03-01T05:23:43;15.37;;;8.17;;
19944;SDS011;10134;50.952;6.930;2023-03-01T05:26:11;13.47;;;8.60;;
19944;SDS011;10134;50.952;6.930;2023-03-01T05:28:53;15.27;;;7.33;;
19944;SDS011;10134;50.952;6.930;2023-03-01T05:31:25;11.70;;;7.67;;
19944;SDS011;10134;50.952;6.930;2023-03-01T05:33:53;16.47;;;9.23;;
19944;SDS011;10134;50.952;6.930;2023-03-01T05:36:20;12.57;;;7.57;;
19944;SDS011;10134;50.952;6.930;2023-03-01T05:38:47;11.37;;;8.40;;
19944;SDS011;10134;50.952;6.930;2023-03-01T05:41:15;15.23;;;8.43;;
19944;SDS011;10134;50.952;6.930;2023-03-01T05:43:43;13.13;;;8.60;;
19944;SDS011;10134;50.952;6.930;2023-03-01T05:46:11;14.27;;;8.93;;
19944;SDS011;10134;50.952;6.930;2023-03-01T05:48:40;13.80;;;8.63;;
19944;SDS011;10134;50.952;6.930;2023-03-01T05:51:07;14.37;;;8.10;;
19944;SDS011;10134;50.952;6.930;2023-03-01T05:53:34;15.17;;;8.97;;
19944;SDS011;10134;50.952;6.930;2023-03-01T05:56:03;13.93;;;8.10;;
19944;SDS011;10134;50.952;6.930;2023-03-01T05:58:31;12.43;;;8.13;;
19944;SDS011;10134;50.952;6.930;2023-03-01T06:00:59;10.50;;;7.83;;
19944;SDS011;10134;50.952;6.930;2023-03-01T06:03:26;15.43;;;9.47;;
19944;SDS011;10134;50.952;6.930;2023-03-01T06:05:57;14.00;;;8.63;;
19944;SDS011;10134;50.952;6.930;2023-03-01T06:08:24;13.93;;;7.97;;
19944;SDS011;10134;50.952;6.930;2023-03-01T06:10:53;14.43;;;9.20;;
19944;SDS011;10134;50.952;6.930;2023-03-01T06:13:21;16.63;;;9.53;;
19944;SDS011;10134;50.952;6.930;2023-03-01T06:15:50;12.43;;;8.63;;
19944;SDS011;10134;50.952;6.930;2023-03-01T06:18:18;13.23;;;9.00;;
19944;SDS011;10134;50.952;6.930;2023-03-01T06:20:52;12.13;;;8.47;;
19944;SDS011;10134;50.952;6.930;2023-03-01T06:23:21;17.10;;;9.30;;
19944;SDS011;10134;50.952;6.930;2023-03-01T06:25:48;15.10;;;8.83;;
19944;SDS011;10134;50.952;6.930;2023-03-01T06:28:16;12.80;;;8.60;;
19944;SDS011;10134;50.952;6.930;2023-03-01T06:30:43;22.73;;;9.53;;
19944;SDS011;10134;50.952;6.930;2023-03-01T06:33:11;15.53;;;8.50;;
19944;SDS011;10134;50.952;6.930;2023-03-01T06:35:38;14.80;;;9.53;;
19944;SDS011;10134;50.952;6.930;2023-03-01T06:38:06;17.37;;;8.47;;
19944;SDS011;10134;50.952;6.930;2023-03-01T06:40:34;14.80;;;9.87;;
19944;SDS011;10134;50.952;6.930;2023-03-01T06:43:02;14.87;;;9.60;;
19944;SDS011;10134;50.952;6.930;2023-03-01T06:45:29;16.10;;;9.40;;
19944;SDS011;10134;50.952;6.930;2023-03-01T06:48:07;16.33;;;9.93;;
19944;SDS011;10134;50.952;6.930;2023-03-01T06:50:34;15.13;;;9.30;;
19944;SDS011;10134;50.952;6.930;2023-03-01T06:53:02;16.03;;;9.77;;
19944;SDS011;10134;50.952;6.930;2023-03-01T06:55:30;15.13;;;8.70;;
19944;SDS011;10134;50.952;6.930;2023-03-01T06:57:58;20.20;;;9.40;;
19944;SDS011;10134;50.952;6.930;2023-03-01T07:00:27;14.07;;;8.60;;
19944;SDS011;10134;50.952;6.930;2023-03-01T07:02:57;16.80;;;9.07;;
19944;SDS011;10134;50.952;6.930;2023-03-01T07:05:29;16.80;;;10.53;;
19944;SDS011;10134;50.952;6.930;2023-03-01T07:07:57;16.77;;;10.20;;
19944;SDS011;10134;50.952;6.930;2023-03-01T07:10:24;19.87;;;9.60;;
19944;SDS011;10134;50.952;6.930;2023-03-01T07:12:55;16.37;;;9.73;;
19944;SDS011;10134;50.952;6.930;2023-03-01T07:15:24;17.50;;;10.33;;
19944;SDS011;10134;50.952;6.930;2023-03-01T07:17:52;15.73;;;10.13;;
19944;SDS011;10134;50.952;6.930;2023-03-01T07:20:20;16.73;;;9.50;;
19944;SDS011;10134;50.952;6.930;2023-03-01T07:22:52;17.67;;;9.57;;
19944;SDS011;10134;50.952;6.930;2023-03-01T07:25:21;22.30;;;9.43;;
19944;SDS011;10134;50.952;6.930;2023-03-01T07:27:50;14.63;;;9.70;;
19944;SDS011;10134;50.952;6.930;2023-03-01T07:30:18;17.50;;;10.40;;
19944;SDS011;10134;50.952;6.930;2023-03-01T07:32:46;15.57;;;9.63;;
19944;SDS011;10134;50.952;6.930;2023-03-01T07:35:14;15.33;;;9.37;;
19944;SDS011;10134;50.952;6.930;2023-03-01T07:37:41;14.83;;;9.23;;
19944;SDS011;10134;50.952;6.930;2023-03-01T07:40:09;17.97;;;9.87;;
19944;SDS011;10134;50.952;6.930;2023-03-01T07:42:37;15.30;;;10.03;;
19944;SDS011;10134;50.952;6.930;2023-03-01T07:45:04;17.67;;;10.97;;
19944;SDS011;10134;50.952;6.930;2023-03-01T07:47:32;16.40;;;9.90;;
19944;SDS011;10134;50.952;6.930;2023-03-01T07:50:00;18.00;;;10.03;;
19944;SDS011;10134;50.952;6.930;2023-03-01T07:52:28;15.93;;;8.67;;
19944;SDS011;10134;50.952;6.930;2023-03-01T07:54:55;17.80;;;9.70;;
19944;SDS011;10134;50.952;6.930;2023-03-01T07:57:23;20.23;;;9.87;;
19944;SDS011;10134;50.952;6.930;2023-03-01T07:59:50;17.77;;;9.47;;
19944;SDS011;10134;50.952;6.930;2023-03-01T08:02:17;15.37;;;9.57;;
19944;SDS011;10134;50.952;6.930;2023-03-01T08:04:45;15.43;;;9.17;;
19944;SDS011;10134;50.952;6.930;2023-03-01T08:07:12;14.53;;;9.93;;
19944;SDS011;10134;50.952;6.930;2023-03-01T08:09:40;18.87;;;10.57;;
19944;SDS011;10134;50.952;6.930;2023-03-01T08:12:07;16.67;;;9.63;;
19944;SDS011;10134;50.952;6.930;2023-03-01T08:14:34;16.17;;;10.17;;
19944;SDS011;10134;50.952;6.930;2023-03-01T08:17:01;18.90;;;9.70;;
19944;SDS011;10134;50.952;6.930;2023-03-01T08:19:29;15.07;;;9.80;;
19944;SDS011;10134;50.952;6.930;2023-03-01T08:21:57;16.07;;;9.13;;
19944;SDS011;10134;50.952;6.930;2023-03-01T08:24:25;18.13;;;9.47;;
19944;SDS011;10134;50.952;6.930;2023-03-01T08:26:52;18.37;;;10.30;;
19944;SDS011;10134;50.952;6.930;2023-03-01T08:29:20;13.80;;;9.00;;
19944;SDS011;10134;50.952;6.930;2023-03-01T08:31:48;17.97;;;9.93;;
19944;SDS011;10134;50.952;6.930;2023-03-01T08:34:16;18.63;;;10.27;;
19944;SDS011;10134;50.952;6.930;2023-03-01T08:36:46;17.30;;;9.93;;
19944;SDS011;10134;50.952;6.930;2023-03-01T08:39:14;16.33;;;9.73;;
19944;SDS011;10134;50.952;6.930;2023-03-01T08:41:43;18.23;;;10.27;;
19944;SDS011;10134;50.952;6.930;2023-03-01T08:44:14;16.07;;;10.03;;
19944;SDS011;10134;50.952;6.930;2023-03-01T08:46:43;17.33;;;10.70;;
19944;SDS011;10134;50.952;6.930;2023-03-01T08:49:16;15.07;;;9.47;;
19944;SDS011;10134;50.952;6.930;2023-03-01T08:51:45;20.40;;;11.13;;
19944;SDS011;10134;50.952;6.930;2023-03-01T08:54:18;14.63;;;9.27;;
19944;SDS011;10134;50.952;6.930;2023-03-01T08:56:47;17.00;;;9.23;;
19944;SDS011;10134;50.952;6.930;2023-03-01T08:59:15;14.57;;;9.37;;
19944;SDS011;10134;50.952;6.930;2023-03-01T09:01:44;18.70;;;9.60;;
19944;SDS011;10134;50.952;6.930;2023-03-01T09:04:11;15.73;;;9.37;;
19944;SDS011;10134;50.952;6.930;2023-03-01T09:06:39;15.93;;;8.67;;
19944;SDS011;10134;50.952;6.930;2023-03-01T09:09:10;15.53;;;9.83;;
19944;SDS011;10134;50.952;6.930;2023-03-01T09:11:42;25.47;;;9.73;;
19944;SDS011;10134;50.952;6.930;2023-03-01T09:14:10;16.07;;;8.80;;
19944;SDS011;10134;50.952;6.930;2023-03-01T09:16:38;15.67;;;8.43;;
19944;SDS011;10134;50.952;6.930;2023-03-01T09:19:06;13.73;;;8.67;;
19944;SDS011;10134;50.952;6.930;2023-03-01T09:21:34;13.40;;;8.70;;
19944;SDS011;10134;50.952;6.930;2023-03-01T09:24:09;14.07;;;8.70;;
19944;SDS011;10134;50.952;6.930;2023-03-01T09:26:40;16.00;;;7.40;;
19944;SDS011;10134;50.952;6.930;2023-03-01T09:29:07;15.97;;;8.73;;
19944;SDS011;10134;50.952;6.930;2023-03-01T09:31:36;16.23;;;8.47;;
19944;SDS011;10134;50.952;6.930;2023-03-01T09:34:04;16.27;;;8.70;;
19944;SDS011;10134;50.952;6.930;2023-03-01T09:36:32;14.03;;;8.00;;
19944;SDS011;10134;50.952;6.930;2023-03-01T09:39:00;16.00;;;8.30;;
19944;SDS011;10134;50.952;6.930;2023-03-01T09:46:55;13.57;;;8.20;;
19944;SDS011;10134;50.952;6.930;2023-03-01T09:49:25;14.80;;;7.30;;
19944;SDS011;10134;50.952;6.930;2023-03-01T09:54:59;11.83;;;7.43;;
19944;SDS011;10134;50.952;6.930;2023-03-01T10:03:06;14.17;;;7.97;;
19944;SDS011;10134;50.952;6.930;2023-03-01T10:08:24;11.83;;;7.40;;
19944;SDS011;10134;50.952;6.930;2023-03-01T10:10:56;12.30;;;8.00;;
19944;SDS011;10134;50.952;6.930;2023-03-01T10:13:29;14.40;;;8.37;;
19944;SDS011;10134;50.952;6.930;2023-03-01T10:16:10;12.10;;;7.83;;
19944;SDS011;10134;50.952;6.930;2023-03-01T10:18:41;19.77;;;9.17;;
19944;SDS011;10134;50.952;6.930;2023-03-01T10:21:15;12.27;;;6.97;;
19944;SDS011;10134;50.952;6.930;2023-03-01T10:23:46;13.50;;;7.30;;
19944;SDS011;10134;50.952;6.930;2023-03-01T10:26:25;12.67;;;7.33;;
19944;SDS011;10134;50.952;6.930;2023-03-01T10:31:36;12.77;;;7.03;;
19944;SDS011;10134;50.952;6.930;2023-03-01T10:34:08;11.23;;;7.20;;
19944;SDS011;10134;50.952;6.930;2023-03-01T10:36:39;16.30;;;8.03;;
19944;SDS011;10134;50.952;6.930;2023-03-01T10:39:18;14.80;;;8.17;;
19944;SDS011;10134;50.952;6.930;2023-03-01T10:41:58;14.10;;;8.47;;
19944;SDS011;10134;50.952;6.930;2023-03-01T10:45:14;12.73;;;7.87;;
19944;SDS011;10134;50.952;6.930;2023-03-01T10:47:27;14.13;;;8.13;;
19944;SDS011;10134;50.952;6.930;2023-03-01T10:50:02;12.80;;;8.37;;
19944;SDS011;10134;50.952;6.930;2023-03-01T10:52:34;10.20;;;6.90;;
19944;SDS011;10134;50.952;6.930;2023-03-01T10:57:43;11.90;;;7.53;;
19944;SDS011;10134;50.952;6.930;2023-03-01T11:02:50;11.27;;;7.80;;
19944;SDS011;10134;50.952;6.930;2023-03-01T11:05:24;12.43;;;7.50;;
19944;SDS011;10134;50.952;6.930;2023-03-01T11:07:56;11.43;;;7.50;;
19944;SDS011;10134;50.952;6.930;2023-03-01T11:10:26;14.10;;;7.60;;
19944;SDS011;10134;50.952;6.930;2023-03-01T11:15:42;10.37;;;7.07;;
19944;SDS011;10134;50.952;6.930;2023-03-01T11:18:24;11.90;;;7.63;;
19944;SDS011;10134;50.952;6.930;2023-03-01T11:21:12;13.97;;;8.73;;
19944;SDS011;10134;50.952;6.930;2023-03-01T11:23:42;13.67;;;7.30;;
19944;SDS011;10134;50.952;6.930;2023-03-01T11:26:12;12.83;;;7.80;;
19944;SDS011;10134;50.952;6.930;2023-03-01T11:28:42;12.13;;;7.13;;
19944;SDS011;10134;50.952;6.930;2023-03-01T11:31:11;11.80;;;6.70;;
19944;SDS011;10134;50.952;6.930;2023-03-01T11:33:41;12.30;;;7.30;;
19944;SDS011;10134;50.952;6.930;2023-03-01T11:36:16;12.53;;;7.80;;
19944;SDS011;10134;50.952;6.930;2023-03-01T11:39:28;10.53;;;7.30;;
19944;SDS011;10134;50.952;6.930;2023-03-01T11:42:12;12.77;;;8.17;;
19944;SDS011;10134;50.952;6.930;2023-03-01T11:44:46;10.80;;;7.50;;
19944;SDS011;10134;50.952;6.930;2023-03-01T11:50:44;12.03;;;7.63;;
19944;SDS011;10134;50.952;6.930;2023-03-01T11:58:49;12.10;;;8.17;;
19944;SDS011;10134;50.952;6.930;2023-03-01T12:07:46;14.83;;;7.47;;
19944;SDS011;10134;50.952;6.930;2023-03-01T12:10:23;12.40;;;7.30;;
19944;SDS011;10134;50.952;6.930;2023-03-01T12:13:05;11.20;;;7.43;;
19944;SDS011;10134;50.952;6.930;2023-03-01T12:18:30;11.50;;;7.03;;
19944;SDS011;10134;50.952;6.930;2023-03-01T12:26:44;10.33;;;6.40;;
19944;SDS011;10134;50.952;6.930;2023-03-01T12:29:34;10.53;;;7.33;;
19944;SDS011;10134;50.952;6.930;2023-03-01T12:38:14;9.53;;;6.50;;
19944;SDS011;10134;50.952;6.930;2023-03-01T12:43:58;12.83;;;7.13;;
19944;SDS011;10134;50.952;6.930;2023-03-01T12:49:51;9.77;;;6.20;;
19944;SDS011;10134;50.952;6.930;2023-03-01T12:52:37;10.33;;;6.23;;
19944;SDS011;10134;50.952;6.930;2023-03-01T12:55:32;14.40;;;6.50;;
19944;SDS011;10134;50.952;6.930;2023-03-01T12:58:16;11.93;;;7.30;;
19944;SDS011;10134;50.952;6.930;2023-03-01T13:06:07;12.53;;;8.17;;
19944;SDS011;10134;50.952;6.930;2023-03-01T13:11:52;11.00;;;7.30;;
19944;SDS011;10134;50.952;6.930;2023-03-01T13:14:44;11.23;;;6.67;;
19944;SDS011;10134;50.952;6.930;2023-03-01T13:17:29;12.50;;;7.23;;
19944;SDS011;10134;50.952;6.930;2023-03-01T13:20:11;9.82;;;6.85;;
19944;SDS011;10134;50.952;6.930;2023-03-01T13:22:40;12.40;;;6.97;;
19944;SDS011;10134;50.952;6.930;2023-03-01T13:25:20;10.47;;;6.07;;
19944;SDS011;10134;50.952;6.930;2023-03-01T13:27:51;10.83;;;6.87;;
19944;SDS011;10134;50.952;6.930;2023-03-01T13:30:57;9.57;;;6.40;;
19944;SDS011;10134;50.952;6.930;2023-03-01T13:36:01;11.68;;;7.28;;
19944;SDS011;10134;50.952;6.930;2023-03-01T13:41:17;10.75;;;6.05;;
19944;SDS011;10134;50.952;6.930;2023-03-01T13:49:45;11.37;;;6.23;;
19944;SDS011;10134;50.952;6.930;2023-03-01T13:52:32;11.03;;;7.07;;
19944;SDS011;10134;50.952;6.930;2023-03-01T13:57:42;9.70;;;5.82;;
19944;SDS011;10134;50.952;6.930;2023-03-01T14:05:33;10.10;;;5.40;;
19944;SDS011;10134;50.952;6.930;2023-03-01T14:08:00;10.13;;;6.55;;
19944;SDS011;10134;50.952;6.930;2023-03-01T14:10:31;12.02;;;6.50;;
19944;SDS011;10134;50.952;6.930;2023-03-01T14:18:38;12.30;;;5.38;;
19944;SDS011;10134;50.952;6.930;2023-03-01T14:21:19;11.13;;;6.40;;
19944;SDS011;10134;50.952;6.930;2023-03-01T14:23:46;8.52;;;5.90;;
19944;SDS011;10134;50.952;6.930;2023-03-01T14:26:14;11.60;;;5.82;;
19944;SDS011;10134;50.952;6.930;2023-03-01T14:28:48;9.70;;;5.85;;
19944;SDS011;10134;50.952;6.930;2023-03-01T14:31:34;9.48;;;5.18;;
19944;SDS011;10134;50.952;6.930;2023-03-01T14:34:22;10.75;;;6.50;;
19944;SDS011;10134;50.952;6.930;2023-03-01T14:36:51;10.13;;;6.07;;
19944;SDS011;10134;50.952;6.930;2023-03-01T14:39:25;8.57;;;6.15;;
19944;SDS011;10134;50.952;6.930;2023-03-01T14:41:53;10.80;;;6.43;;
19944;SDS011;10134;50.952;6.930;2023-03-01T14:44:24;13.63;;;5.82;;
19944;SDS011;10134;50.952;6.930;2023-03-01T14:46:52;12.63;;;7.03;;
19944;SDS011;10134;50.952;6.930;2023-03-01T14:49:23;20.98;;;7.40;;
19944;SDS011;10134;50.952;6.930;2023-03-01T14:52:03;10.88;;;6.20;;
19944;SDS011;10134;50.952;6.930;2023-03-01T14:54:37;8.20;;;6.28;;
19944;SDS011;10134;50.952;6.930;2023-03-01T14:57:15;10.65;;;6.35;;
19944;SDS011;10134;50.952;6.930;2023-03-01T14:59:45;13.38;;;6.20;;
19944;SDS011;10134;50.952;6.930;2023-03-01T15:02:15;12.18;;;5.72;;
19944;SDS011;10134;50.952;6.930;2023-03-01T15:04:46;9.20;;;6.20;;
19944;SDS011;10134;50.952;6.930;2023-03-01T15:07:16;13.25;;;6.03;;
19944;SDS011;10134;50.952;6.930;2023-03-01T15:09:44;12.02;;;5.80;;
19944;SDS011;10134;50.952;6.930;2023-03-01T15:14:55;9.25;;;6.28;;
19944;SDS011;10134;50.952;6.930;2023-03-01T15:17:31;11.57;;;6.85;;
19944;SDS011;10134;50.952;6.930;2023-03-01T15:20:02;10.00;;;6.22;;
19944;SDS011;10134;50.952;6.930;2023-03-01T15:22:31;10.65;;;6.57;;
19944;SDS011;10134;50.952;6.930;2023-03-01T15:24:58;9.95;;;6.45;;
19944;SDS011;10134;50.952;6.930;2023-03-01T15:27:26;10.97;;;6.73;;
19944;SDS011;10134;50.952;6.930;2023-03-01T15:30:00;11.20;;;6.30;;
19944;SDS011;10134;50.952;6.930;2023-03-01T15:32:30;9.50;;;6.20;;
19944;SDS011;10134;50.952;6.930;2023-03-01T15:38:23;12.17;;;5.80;;
19944;SDS011;10134;50.952;6.930;2023-03-01T15:41:22;8.45;;;6.00;;
19944;SDS011;10134;50.952;6.930;2023-03-01T15:43:52;10.00;;;5.70;;
19944;SDS011;10134;50.952;6.930;2023-03-01T15:46:28;10.40;;;6.70;;
19944;SDS011;10134;50.952;6.930;2023-03-01T15:49:18;11.90;;;5.82;;
19944;SDS011;10134;50.952;6.930;2023-03-01T15:51:54;11.75;;;6.35;;
19944;SDS011;10134;50.952;6.930;2023-03-01T15:54:22;10.02;;;5.85;;
19944;SDS011;10134;50.952;6.930;2023-03-01T15:56:51;15.82;;;6.25;;
19944;SDS011;10134;50.952;6.930;2023-03-01T15:59:19;10.80;;;6.20;;
19944;SDS011;10134;50.952;6.930;2023-03-01T16:01:46;9.45;;;5.43;;
19944;SDS011;10134;50.952;6.930;2023-03-01T16:04:16;9.37;;;5.93;;
19944;SDS011;10134;50.952;6.930;2023-03-01T16:06:50;9.07;;;5.55;;
19944;SDS011;10134;50.952;6.930;2023-03-01T16:09:23;10.18;;;4.80;;
19944;SDS011;10134;50.952;6.930;2023-03-01T16:11:52;7.40;;;4.90;;
19944;SDS011;10134;50.952;6.930;2023-03-01T16:14:21;10.50;;;5.87;;
19944;SDS011;10134;50.952;6.930;2023-03-01T16:16:48;11.30;;;5.77;;
19944;SDS011;10134;50.952;6.930;2023-03-01T16:19:16;11.00;;;5.17;;
19944;SDS011;10134;50.952;6.930;2023-03-01T16:21:43;10.10;;;5.72;;
19944;SDS011;10134;50.952;6.930;2023-03-01T16:24:13;11.45;;;4.95;;
19944;SDS011;10134;50.952;6.930;2023-03-01T16:26:41;9.57;;;5.40;;
19944;SDS011;10134;50.952;6.930;2023-03-01T16:29:09;10.30;;;5.47;;
19944;SDS011;10134;50.952;6.930;2023-03-01T16:31:36;9.17;;;5.20;;
19944;SDS011;10134;50.952;6.930;2023-03-01T16:34:04;7.27;;;5.07;;
19944;SDS011;10134;50.952;6.930;2023-03-01T16:36:31;8.27;;;5.10;;
19944;SDS011;10134;50.952;6.930;2023-03-01T16:38:59;9.40;;;5.35;;
19944;SDS011;10134;50.952;6.930;2023-03-01T16:41:30;8.60;;;5.30;;
19944;SDS011;10134;50.952;6.930;2023-03-01T16:43:58;8.33;;;5.53;;
19944;SDS011;10134;50.952;6.930;2023-03-01T16:46:28;6.63;;;4.53;;
19944;SDS011;10134;50.952;6.930;2023-03-01T16:48:55;10.03;;;5.47;;
19944;SDS011;10134;50.952;6.930;2023-03-01T16:51:23;10.73;;;5.87;;